»·PEaware :: N1671Q KSBA-KSMX

N1671Q :: KSBA-KSMX

FLIGHT INFORMATION

Flight Status: Arrived
Operator: Privately registered:
United States
More flights under this callsign
Pilot: Gary H. (18965)
Aircraft: CESSNA 172 SKYHAWK
(C172)
More flights by this aircraft type
Origin: KSBA Santa Barbara Mun
United States
Destination: KSMX Santa Maria Pub/Capt Hancock
United States
More flights between these airports :: More routes between these airports
Route: +
File this flight plan on PilotEdge
Remarks:
Altitude:
(Current/Filed)
4,500ft
Speed:
(Current/Filed)
0kts
Departed: 31-Aug-18 09:30 PM
Arrived: 31-Aug-18 10:01 PM
Distance/Time
Traveled:
41nm/0:30
Distance/Time
To Go:
Arrived

Flight Plot

Page will automatically refresh every two minutes.


Map Options




Map Legend


Flown Route
Filed Route
Departure Airport
Arrival Airport
Navaid (VOR, NDB)
Fix

Horizontal Profiles

Position Reports

Time Latitude Longitude Heading Altitude Ground
Speed
31-Aug-18 21:16 34.432266 -119.835253 248 14ft 0kts
31-Aug-18 21:17 34.432266 -119.835253 248 14ft 0kts
31-Aug-18 21:18 34.432266 -119.835253 248 14ft 0kts
31-Aug-18 21:19 34.432266 -119.835253 248 14ft 0kts
31-Aug-18 21:20 34.432266 -119.835253 248 14ft 0kts
31-Aug-18 21:21 34.432266 -119.835253 248 14ft 0kts
31-Aug-18 21:22 34.432266 -119.835253 248 14ft 0kts
31-Aug-18 21:23 34.432266 -119.835253 248 14ft 0kts
31-Aug-18 21:24 34.432266 -119.835253 248 14ft 0kts
31-Aug-18 21:25 34.432266 -119.835253 248 14ft 0kts
31-Aug-18 21:26 34.432243 -119.835311 241 14ft 4kts
31-Aug-18 21:27 34.430758 -119.839607 247 14ft 11kts
31-Aug-18 21:28 34.430734 -119.839675 248 14ft 0kts
31-Aug-18 21:29 34.430734 -119.839675 248 14ft 0kts
31-Aug-18 21:30 34.430734 -119.839675 248 14ft 0kts
31-Aug-18 21:31 34.426927 -119.839226 167 50ft 65kts
31-Aug-18 21:32 34.404084 -119.829063 167 554ft 103kts
31-Aug-18 21:33 34.379351 -119.836308 286 932ft 120kts
31-Aug-18 21:34 34.401931 -119.865186 312 1509ft 116kts
31-Aug-18 21:35 34.421962 -119.895677 301 2180ft 112kts
31-Aug-18 21:36 34.440755 -119.925242 305 2806ft 107kts
31-Aug-18 21:37 34.460877 -119.951841 309 3349ft 106kts
31-Aug-18 21:38 34.480377 -119.978505 304 3869ft 104kts
31-Aug-18 21:39 34.498557 -120.005488 311 4369ft 102kts
31-Aug-18 21:40 34.518020 -120.028913 311 4574ft 99kts
31-Aug-18 21:41 34.537949 -120.050644 308 4608ft 95kts
31-Aug-18 21:42 34.556773 -120.073248 312 4609ft 96kts
31-Aug-18 21:43 34.575401 -120.095937 308 4577ft 95kts
31-Aug-18 21:44 34.594226 -120.118118 314 4572ft 93kts
31-Aug-18 21:45 34.613324 -120.139158 309 4578ft 91kts
31-Aug-18 21:46 34.629369 -120.158563 314 4610ft 90kts
31-Aug-18 21:47 34.639212 -120.168898 314 4578ft 93kts
31-Aug-18 21:48 34.658391 -120.190946 313 4527ft 95kts
31-Aug-18 21:49 34.677752 -120.212575 312 4503ft 93kts
31-Aug-18 21:50 34.697741 -120.233256 313 4439ft 92kts
31-Aug-18 21:51 34.717126 -120.254210 316 4401ft 93kts
31-Aug-18 21:52 34.737132 -120.274328 314 4392ft 92kts
31-Aug-18 21:53 34.756246 -120.294996 317 4386ft 92kts
31-Aug-18 21:54 34.776236 -120.314262 315 4381ft 91kts
31-Aug-18 21:55 34.794621 -120.334698 317 3998ft 95kts
31-Aug-18 21:56 34.815407 -120.354927 319 3389ft 96kts
31-Aug-18 21:57 34.834833 -120.377407 313 2702ft 81kts
31-Aug-18 21:58 34.850519 -120.394971 313 1659ft 75kts
31-Aug-18 21:59 34.864943 -120.412575 312 1176ft 71kts
31-Aug-18 22:00 34.878418 -120.428658 314 718ft 63kts
31-Aug-18 22:01 34.890215 -120.442757 314 380ft 58kts
31-Aug-18 22:02 34.897486 -120.450027 2 265ft 13kts
31-Aug-18 22:03 34.897702 -120.449986 6 265ft 0kts
31-Aug-18 22:04 34.897460 -120.448891 136 265ft 8kts
31-Aug-18 22:05 34.897062 -120.446522 207 265ft 1kts
31-Aug-18 22:06 34.897031 -120.446540 199 265ft 0kts

Navigation Log

Ident Type
1. KSBA Airport
2. KSMX Airport